Time;durP1;ratioP1;P1;durP2;ratioP2;P2;SDS_P1;SDS_P2;PMS_P1;PMS_P2;Temp;Humidity;BMP_temperature;BMP_pressure;BME280_temperature;BME280_humidity;BME280_pressure;Samples;Min_cycle;Max_cycle;Signal;HPM_P1;HPM_P2
2023/07/18 00:00:17;;;;;;;7.40;6.05;;;19.10;99.90;;;;;;5148308;28;20121;-73
2023/07/18 00:02:48;;;;;;;7.07;6.47;;;19.00;99.90;;;;;;5146786;28;20119;-72
2023/07/18 00:05:18;;;;;;;6.70;6.20;;;18.70;99.90;;;;;;5146805;28;20436;-73
2023/07/18 00:07:49;;;;;;;6.55;6.03;;;18.50;99.90;;;;;;5148103;28;20030;-72
2023/07/18 00:10:20;;;;;;;9.77;8.98;;;18.70;99.90;;;;;;5147894;28;20093;-73
2023/07/18 00:12:51;;;;;;;8.95;8.25;;;18.60;99.90;;;;;;5148093;28;20023;-74
2023/07/18 00:15:22;;;;;;;8.75;7.78;;;18.70;99.90;;;;;;5148257;28;20391;-73
2023/07/18 00:17:53;;;;;;;8.65;7.97;;;18.80;99.90;;;;;;5147804;28;20046;-74
2023/07/18 00:20:24;;;;;;;9.48;7.80;;;18.80;99.90;;;;;;5148147;28;20367;-72
2023/07/18 00:22:55;;;;;;;8.57;7.97;;;18.80;99.90;;;;;;5146376;28;20069;-73
2023/07/18 00:25:26;;;;;;;9.98;6.35;;;18.70;99.90;;;;;;5147848;28;20023;-72
2023/07/18 00:27:57;;;;;;;6.22;5.75;;;18.70;99.90;;;;;;5147789;28;20081;-72
2023/07/18 00:30:28;;;;;;;7.65;5.78;;;18.60;99.90;;;;;;5146313;28;20026;-72
2023/07/18 00:32:58;;;;;;;8.07;6.07;;;18.60;99.90;;;;;;5146847;28;20030;-73
2023/07/18 00:35:29;;;;;;;6.30;5.65;;;18.60;99.90;;;;;;5147465;28;20039;-72
2023/07/18 00:38:00;;;;;;;7.05;6.57;;;18.50;99.90;;;;;;5147524;28;20031;-72
2023/07/18 00:40:31;;;;;;;7.07;6.38;;;18.60;99.90;;;;;;5147600;28;20041;-73
2023/07/18 00:43:01;;;;;;;7.72;7.07;;;18.60;99.90;;;;;;5147491;28;20065;-72
2023/07/18 00:45:32;;;;;;;7.43;6.93;;;18.40;99.90;;;;;;5147427;28;20031;-72
2023/07/18 00:48:04;;;;;;;7.20;6.72;;;18.30;99.90;;;;;;5146122;28;20469;-72
2023/07/18 00:50:35;;;;;;;7.50;6.88;;;18.50;99.90;;;;;;5147318;28;20080;-73
2023/07/18 00:53:06;;;;;;;7.40;6.63;;;18.40;99.90;;;;;;5147223;28;20109;-72
2023/07/18 00:55:37;;;;;;;7.55;6.85;;;18.20;99.90;;;;;;5147090;28;20042;-75
2023/07/18 00:58:08;;;;;;;6.60;6.10;;;18.20;99.90;;;;;;5147072;28;20023;-75
2023/07/18 01:00:39;;;;;;;7.32;6.68;;;18.10;99.90;;;;;;5147036;28;20030;-73
2023/07/18 01:03:10;;;;;;;5.97;5.40;;;18.20;99.90;;;;;;5146883;28;20364;-73
2023/07/18 01:05:40;;;;;;;5.53;5.00;;;18.10;99.90;;;;;;5146808;28;20031;-72
2023/07/18 01:08:15;;;;;;;5.68;5.22;;;18.10;99.90;;;;;;5146862;28;20037;-72
2023/07/18 01:10:53;;;;;;;5.80;5.30;;;18.10;99.90;;;;;;5146912;28;20026;-71
2023/07/18 01:13:23;;;;;;;5.97;5.53;;;18.30;99.90;;;;;;5146810;28;20471;-72
2023/07/18 01:15:54;;;;;;;5.47;5.07;;;18.00;99.90;;;;;;5145244;28;20133;-72
2023/07/18 01:18:25;;;;;;;6.07;5.68;;;18.10;99.90;;;;;;5145109;28;20087;-72
2023/07/18 01:20:58;;;;;;;6.20;5.70;;;18.10;99.90;;;;;;5146719;28;20031;-72
2023/07/18 01:23:29;;;;;;;5.85;5.32;;;17.80;99.90;;;;;;5146315;28;20051;-72
2023/07/18 01:26:00;;;;;;;5.50;5.10;;;18.10;99.90;;;;;;5146558;28;20039;-72
2023/07/18 01:28:30;;;;;;;5.32;4.85;;;17.80;99.90;;;;;;5146557;28;20428;-72
2023/07/18 01:31:01;;;;;;;5.72;5.30;;;17.90;99.90;;;;;;5161400;28;20031;-72
2023/07/18 01:33:33;;;;;;;6.80;5.90;;;17.90;99.90;;;;;;5146704;28;20106;-72
2023/07/18 01:36:04;;;;;;;5.88;5.40;;;18.10;99.90;;;;;;5146706;28;20042;-73
2023/07/18 01:38:35;;;;;;;5.80;5.40;;;18.10;99.90;;;;;;5146434;28;20034;-73
2023/07/18 01:41:07;;;;;;;5.78;4.70;;;18.10;99.90;;;;;;5146279;28;20369;-72
2023/07/18 01:43:38;;;;;;;5.40;4.40;;;17.90;99.90;;;;;;5146089;28;20089;-72
2023/07/18 01:46:09;;;;;;;5.30;4.78;;;17.70;99.90;;;;;;5146282;28;20077;-73
2023/07/18 01:48:39;;;;;;;5.05;4.57;;;17.70;99.90;;;;;;5146213;28;20464;-72
2023/07/18 01:51:10;;;;;;;7.53;4.93;;;17.90;99.90;;;;;;5145664;28;20065;-72
2023/07/18 01:53:41;;;;;;;4.65;4.25;;;17.70;99.90;;;;;;5146050;28;20054;-72
2023/07/18 01:56:12;;;;;;;5.80;5.13;;;17.70;99.90;;;;;;5145873;28;20043;-72
2023/07/18 01:58:44;;;;;;;5.18;4.78;;;17.50;99.90;;;;;;5146023;28;20022;-72
2023/07/18 02:01:14;;;;;;;4.78;4.40;;;17.60;99.90;;;;;;5144739;28;20015;-72
2023/07/18 02:03:46;;;;;;;4.63;4.30;;;17.50;99.90;;;;;;5145760;28;20038;-72
2023/07/18 02:06:17;;;;;;;5.63;5.10;;;17.60;99.90;;;;;;5145991;28;20019;-72
2023/07/18 02:08:49;;;;;;;5.70;5.28;;;17.60;99.90;;;;;;5145793;28;20030;-72
2023/07/18 02:11:19;;;;;;;6.38;5.88;;;17.60;99.90;;;;;;5145824;28;20339;-74
2023/07/18 02:13:50;;;;;;;5.78;5.32;;;17.60;99.90;;;;;;5145614;28;20038;-74
2023/07/18 02:16:21;;;;;;;5.82;5.32;;;17.50;99.90;;;;;;5145245;28;20043;-75
2023/07/18 02:18:53;;;;;;;5.47;4.88;;;17.50;99.90;;;;;;5145618;28;20027;-73
2023/07/18 02:21:24;;;;;;;5.30;4.80;;;17.60;99.90;;;;;;5160315;28;20491;-73
2023/07/18 02:23:55;;;;;;;5.30;4.80;;;17.50;99.90;;;;;;5145309;28;20057;-72
2023/07/18 02:26:25;;;;;;;5.03;4.63;;;17.70;99.90;;;;;;5145126;28;20042;-72
2023/07/18 02:28:56;;;;;;;5.30;4.90;;;17.50;99.90;;;;;;5145336;28;20029;-72
2023/07/18 02:31:27;;;;;;;5.80;5.28;;;17.40;99.90;;;;;;5145370;28;20031;-72
2023/07/18 02:33:58;;;;;;;6.10;5.55;;;17.30;99.90;;;;;;5145225;28;20027;-72
2023/07/18 02:36:29;;;;;;;6.65;6.05;;;17.30;99.90;;;;;;5145227;28;20053;-73
2023/07/18 02:39:00;;;;;;;6.28;5.68;;;17.40;99.90;;;;;;5145317;28;20445;-73
2023/07/18 02:41:30;;;;;;;7.45;5.60;;;17.30;99.90;;;;;;5144012;28;20065;-72
2023/07/18 02:44:01;;;;;;;5.03;4.50;;;17.20;99.90;;;;;;5145304;28;20105;-72
2023/07/18 02:46:32;;;;;;;5.20;4.80;;;17.50;99.90;;;;;;5145512;28;20478;-72
2023/07/18 02:49:03;;;;;;;4.75;4.35;;;17.20;99.90;;;;;;5145236;28;20372;-72
2023/07/18 02:51:34;;;;;;;5.00;4.60;;;17.40;99.90;;;;;;5145440;28;20078;-72
2023/07/18 02:54:04;;;;;;;4.72;4.32;;;17.60;99.90;;;;;;5145013;28;20066;-73
2023/07/18 02:56:35;;;;;;;4.65;4.30;;;17.70;99.90;;;;;;5145040;28;20031;-72
2023/07/18 02:59:06;;;;;;;6.15;4.82;;;17.40;99.90;;;;;;5145222;28;20019;-72
2023/07/18 03:01:37;;;;;;;4.80;4.40;;;17.20;99.90;;;;;;5145173;28;20539;-72
2023/07/18 03:04:08;;;;;;;5.05;4.65;;;16.90;99.90;;;;;;5144985;28;20054;-72
2023/07/18 03:06:38;;;;;;;4.47;3.90;;;17.30;99.90;;;;;;5159950;28;20495;-72
2023/07/18 03:09:09;;;;;;;4.53;4.18;;;17.30;99.90;;;;;;5143762;28;20077;-72
2023/07/18 03:11:40;;;;;;;4.97;4.57;;;17.20;99.90;;;;;;5145123;28;20058;-72
2023/07/18 03:14:11;;;;;;;5.47;4.72;;;17.20;99.90;;;;;;5144883;28;20150;-72
2023/07/18 03:16:42;;;;;;;4.30;3.95;;;17.30;99.90;;;;;;5171021;28;20038;-72
2023/07/18 03:19:14;;;;;;;4.65;4.25;;;17.70;99.90;;;;;;5164912;28;20045;-71
2023/07/18 03:21:45;;;;;;;4.72;4.32;;;17.40;99.90;;;;;;5164846;28;20489;-72
2023/07/18 03:24:15;;;;;;;4.93;4.53;;;17.20;99.90;;;;;;5164891;28;20136;-72
2023/07/18 03:26:46;;;;;;;5.10;4.63;;;17.00;99.90;;;;;;5161372;28;20034;-74
2023/07/18 03:29:17;;;;;;;5.70;5.20;;;17.10;99.90;;;;;;5162724;28;20049;-75
2023/07/18 03:31:48;;;;;;;8.18;6.32;;;17.30;99.90;;;;;;5164817;28;20096;-74
2023/07/18 03:34:19;;;;;;;6.45;5.82;;;17.40;99.90;;;;;;5164580;28;20030;-74
2023/07/18 03:36:50;;;;;;;6.55;6.00;;;17.30;99.90;;;;;;5164440;28;20031;-73
2023/07/18 03:39:21;;;;;;;6.50;5.85;;;17.40;99.90;;;;;;5163883;28;20117;-72
2023/07/18 03:41:51;;;;;;;6.05;5.43;;;17.90;99.90;;;;;;5164647;28;20089;-72
2023/07/18 03:44:22;;;;;;;5.65;5.13;;;17.80;99.90;;;;;;5164135;28;20023;-73
2023/07/18 03:46:53;;;;;;;5.93;5.32;;;17.80;99.90;;;;;;5164770;28;20033;-72
2023/07/18 03:49:24;;;;;;;6.07;5.57;;;17.90;99.90;;;;;;5164599;28;20030;-72
2023/07/18 03:51:54;;;;;;;12.27;5.07;;;17.80;99.90;;;;;;5164501;28;20030;-78
2023/07/18 03:54:25;;;;;;;5.32;4.63;;;17.80;99.90;;;;;;5164657;28;20031;-72
2023/07/18 03:56:56;;;;;;;6.38;5.88;;;17.70;99.90;;;;;;5163297;28;20042;-72
2023/07/18 03:59:27;;;;;;;5.88;5.38;;;17.80;99.90;;;;;;5164621;28;20035;-72
2023/07/18 04:02:00;;;;;;;6.65;6.15;;;17.70;99.90;;;;;;5163195;28;20030;-72
2023/07/18 04:04:31;;;;;;;6.13;5.63;;;17.80;99.90;;;;;;5164598;28;20106;-72
2023/07/18 04:07:02;;;;;;;5.38;4.88;;;17.90;99.90;;;;;;5164502;28;20105;-72
2023/07/18 04:09:34;;;;;;;5.60;5.15;;;18.20;99.90;;;;;;5168413;28;20031;-72
2023/07/18 04:12:05;;;;;;;5.90;5.50;;;18.20;99.90;;;;;;5168351;28;20014;-72
2023/07/18 04:14:36;;;;;;;6.03;5.43;;;18.50;99.90;;;;;;5167896;28;20121;-72
2023/07/18 04:17:07;;;;;;;6.10;5.50;;;18.00;99.90;;;;;;5168077;28;20113;-72
2023/07/18 04:19:38;;;;;;;6.10;5.60;;;18.20;99.90;;;;;;5166680;28;20058;-78
2023/07/18 04:22:08;;;;;;;8.13;5.72;;;18.30;99.90;;;;;;5167644;28;20034;-73
2023/07/18 04:24:39;;;;;;;7.47;6.78;;;18.40;99.90;;;;;;5168044;28;20121;-72
2023/07/18 04:27:10;;;;;;;8.18;7.50;;;18.40;99.90;;;;;;5166503;28;20394;-72
2023/07/18 04:29:41;;;;;;;6.60;6.07;;;18.40;99.90;;;;;;5167698;28;20109;-72
2023/07/18 04:32:12;;;;;;;6.60;6.00;;;18.40;99.90;;;;;;5167695;28;20097;-72
2023/07/18 04:34:43;;;;;;;6.68;6.03;;;18.50;99.90;;;;;;5167827;28;20053;-72
2023/07/18 04:37:14;;;;;;;7.82;5.50;;;18.70;99.90;;;;;;5167789;28;20093;-72
2023/07/18 04:39:44;;;;;;;6.32;5.72;;;18.80;99.90;;;;;;5167698;28;20029;-72
2023/07/18 04:42:15;;;;;;;6.40;5.88;;;19.00;99.90;;;;;;5167599;28;20141;-73
2023/07/18 04:44:46;;;;;;;6.82;6.18;;;19.20;99.90;;;;;;5167525;28;20030;-72
2023/07/18 04:47:17;;;;;;;6.18;5.72;;;19.40;99.90;;;;;;5167942;28;20041;-73
2023/07/18 04:49:48;;;;;;;7.68;5.63;;;19.40;99.90;;;;;;5166144;28;20050;-76
2023/07/18 04:52:19;;;;;;;5.88;5.30;;;19.50;99.90;;;;;;5167278;28;20073;-73
2023/07/18 04:54:49;;;;;;;6.35;5.75;;;19.70;99.90;;;;;;5167029;28;20109;-73
2023/07/18 04:57:21;;;;;;;5.68;5.03;;;19.80;99.90;;;;;;5167156;28;20118;-72
2023/07/18 04:59:51;;;;;;;6.57;6.07;;;19.90;99.90;;;;;;5167041;28;20026;-73
2023/07/18 05:02:22;;;;;;;6.50;6.00;;;20.10;99.90;;;;;;5166801;28;20034;-73
2023/07/18 05:04:53;;;;;;;6.68;6.05;;;20.50;99.90;;;;;;5167162;28;20166;-74
2023/07/18 05:07:24;;;;;;;7.75;7.05;;;20.60;99.90;;;;;;5167091;28;20367;-73
2023/07/18 05:09:55;;;;;;;8.73;7.13;;;20.70;99.90;;;;;;5167005;28;20054;-73
2023/07/18 05:12:26;;;;;;;7.13;6.63;;;20.80;99.90;;;;;;5165632;28;20026;-73
2023/07/18 05:14:56;;;;;;;6.10;5.70;;;21.10;99.90;;;;;;5166825;28;20026;-73
2023/07/18 05:17:27;;;;;;;7.18;6.63;;;21.30;99.90;;;;;;5166738;28;20038;-72
2023/07/18 05:19:58;;;;;;;6.70;6.20;;;21.40;99.90;;;;;;5167050;28;20030;-73
2023/07/18 05:22:29;;;;;;;7.40;6.72;;;21.60;99.90;;;;;;5166855;28;20050;-73
2023/07/18 05:25:00;;;;;;;7.88;6.25;;;21.80;99.90;;;;;;5167049;28;20037;-72
2023/07/18 05:27:31;;;;;;;7.32;6.25;;;21.90;99.90;;;;;;5166803;28;20053;-75
2023/07/18 05:30:04;;;;;;;7.35;6.85;;;21.90;99.90;;;;;;5166676;28;20027;-73
2023/07/18 05:32:35;;;;;;;7.18;6.53;;;22.00;99.90;;;;;;5166574;28;20475;-73
2023/07/18 05:35:09;;;;;;;7.57;6.93;;;22.10;99.90;;;;;;5165219;28;20035;-73
2023/07/18 05:37:41;;;;;;;6.40;5.80;;;22.30;99.90;;;;;;5165340;28;20045;-73
2023/07/18 05:40:12;;;;;;;6.35;5.75;;;22.70;99.90;;;;;;5165270;28;20027;-73
2023/07/18 05:42:45;;;;;;;7.03;6.43;;;23.00;99.90;;;;;;5166479;28;20073;-73
2023/07/18 05:45:16;;;;;;;12.20;6.47;;;23.30;99.90;;;;;;5165135;28;20027;-73
2023/07/18 05:47:47;;;;;;;6.85;6.22;;;23.60;99.90;;;;;;5166192;28;20073;-72
2023/07/18 05:50:18;;;;;;;12.27;6.60;;;23.80;99.90;;;;;;5166243;28;20080;-72
2023/07/18 05:52:48;;;;;;;14.13;7.63;;;24.00;99.90;;;;;;5166163;28;20030;-72
2023/07/18 05:55:19;;;;;;;9.88;8.20;;;24.10;99.90;;;;;;5166243;28;20130;-72
2023/07/18 05:57:50;;;;;;;11.68;7.03;;;24.10;99.90;;;;;;5166328;28;20033;-72
2023/07/18 06:00:21;;;;;;;13.70;7.93;;;24.30;99.90;;;;;;5166045;28;20041;-72
2023/07/18 06:02:52;;;;;;;12.82;7.65;;;24.20;99.90;;;;;;5165911;28;20088;-73
2023/07/18 06:05:23;;;;;;;7.70;5.88;;;24.50;99.90;;;;;;5165880;28;20370;-72
2023/07/18 06:07:53;;;;;;;8.05;6.00;;;24.40;99.90;;;;;;5165888;28;20030;-73
2023/07/18 06:10:24;;;;;;;5.93;5.43;;;24.60;99.90;;;;;;5165821;28;20022;-73
2023/07/18 06:12:55;;;;;;;11.55;5.75;;;24.40;99.90;;;;;;5165683;28;20033;-73
2023/07/18 06:15:26;;;;;;;5.90;5.35;;;24.70;99.90;;;;;;5164231;28;20546;-72
2023/07/18 06:17:57;;;;;;;9.20;5.53;;;24.80;99.90;;;;;;5165794;28;20363;-77
2023/07/18 06:20:27;;;;;;;6.22;5.72;;;25.00;99.90;;;;;;5165700;28;20049;-72
2023/07/18 06:22:59;;;;;;;5.20;4.78;;;25.40;99.90;;;;;;5165341;28;20058;-72
2023/07/18 06:25:29;;;;;;;9.55;4.75;;;25.30;99.90;;;;;;5164262;28;20030;-72
2023/07/18 06:28:00;;;;;;;5.53;5.03;;;25.60;99.90;;;;;;5165344;28;20045;-73
2023/07/18 06:30:31;;;;;;;5.50;5.00;;;25.60;99.90;;;;;;5164872;28;20022;-72
2023/07/18 06:33:02;;;;;;;6.28;5.60;;;25.60;99.90;;;;;;5165440;28;20019;-72
2023/07/18 06:35:33;;;;;;;7.45;5.40;;;25.70;99.90;;;;;;5165426;28;20537;-72
2023/07/18 06:38:04;;;;;;;5.50;5.00;;;25.80;99.90;;;;;;5165611;28;20383;-73
2023/07/18 06:40:34;;;;;;;9.23;6.18;;;25.90;99.90;;;;;;5165834;28;20022;-73
2023/07/18 06:43:05;;;;;;;7.30;5.78;;;26.00;99.90;;;;;;5165517;28;20430;-73
2023/07/18 06:45:36;;;;;;;6.72;5.85;;;26.20;99.90;;;;;;5165555;28;20066;-72
2023/07/18 06:48:07;;;;;;;8.55;5.32;;;26.20;99.90;;;;;;5164037;28;20467;-77
2023/07/18 06:50:44;;;;;;;6.22;5.53;;;26.30;99.90;;;;;;5165256;28;20473;-73
2023/07/18 06:53:19;;;;;;;7.40;6.00;;;26.40;99.90;;;;;;5165197;28;20058;-73
2023/07/18 06:55:50;;;;;;;8.32;5.80;;;26.50;99.90;;;;;;5165182;28;20586;-73
2023/07/18 06:58:21;;;;;;;7.30;5.20;;;26.40;99.90;;;;;;5165085;28;20109;-77
2023/07/18 07:00:52;;;;;;;7.70;5.15;;;26.50;99.90;;;;;;5165225;28;20033;-73
2023/07/18 07:03:23;;;;;;;5.50;5.00;;;26.30;99.90;;;;;;5163735;28;20054;-72
2023/07/18 07:05:54;;;;;;;8.13;5.50;;;26.60;99.90;;;;;;5165112;28;20030;-75
2023/07/18 07:08:25;;;;;;;11.30;5.80;;;26.90;99.90;;;;;;5164632;28;20018;-77
2023/07/18 07:11:07;;;;;;;7.90;5.97;;;26.90;99.90;;;;;;5164802;28;20041;-72
2023/07/18 07:13:38;;;;;;;6.90;6.05;;;27.00;99.90;;;;;;5164593;28;20022;-73
2023/07/18 07:16:09;;;;;;;7.20;6.28;;;27.00;99.90;;;;;;5164534;28;20057;-74
2023/07/18 07:18:39;;;;;;;7.82;5.43;;;27.20;99.90;;;;;;5164822;28;20025;-73
2023/07/18 07:21:10;;;;;;;9.90;5.63;;;27.30;99.90;;;;;;5163612;28;20031;-73
2023/07/18 07:23:41;;;;;;;7.63;6.80;;;27.40;99.90;;;;;;5164439;28;20507;-77
2023/07/18 07:26:12;;;;;;;9.18;8.48;;;27.30;99.90;;;;;;5164527;28;20041;-78
2023/07/18 07:28:42;;;;;;;10.07;9.23;;;27.20;99.90;;;;;;5164727;28;20018;-73
2023/07/18 07:31:14;;;;;;;8.15;7.38;;;27.20;99.90;;;;;;5163479;28;20031;-73
2023/07/18 07:33:45;;;;;;;7.68;6.93;;;27.40;99.90;;;;;;5164527;28;20455;-77
2023/07/18 07:36:16;;;;;;;6.88;6.28;;;27.50;99.90;;;;;;5164579;28;20053;-79
2023/07/18 07:38:48;;;;;;;7.20;6.50;;;27.60;99.90;;;;;;5164663;28;20022;-78
2023/07/18 07:41:19;;;;;;;8.57;5.90;;;27.70;99.90;;;;;;5166330;28;20026;-73
2023/07/18 07:43:49;;;;;;;7.95;6.68;;;27.80;99.90;;;;;;5168689;28;20498;-74
2023/07/18 07:46:20;;;;;;;9.35;6.55;;;27.70;99.90;;;;;;5168608;28;20022;-73
2023/07/18 07:48:51;;;;;;;5.88;4.63;;;27.90;99.90;;;;;;5168655;28;20030;-74
2023/07/18 07:51:22;;;;;;;6.78;5.28;;;27.90;99.90;;;;;;5168368;28;20027;-73
2023/07/18 07:53:54;;;;;;;8.30;4.70;;;27.70;99.90;;;;;;5168807;28;20102;-73
2023/07/18 07:56:25;;;;;;;10.60;4.03;;;28.00;99.90;;;;;;5168769;28;20045;-74
2023/07/18 07:58:55;;;;;;;11.43;3.95;;;28.30;99.90;;;;;;5168418;28;20469;-73
2023/07/18 08:01:26;;;;;;;6.63;4.35;;;28.20;99.90;;;;;;5168401;28;20185;-73
2023/07/18 08:03:57;;;;;;;5.95;3.78;;;28.20;99.90;;;;;;5168189;28;20124;-74
2023/07/18 08:06:28;;;;;;;7.35;4.30;;;28.40;99.90;;;;;;5168429;28;20026;-78
2023/07/18 08:08:59;;;;;;;6.65;4.60;;;28.40;99.90;;;;;;5168257;28;20546;-74
2023/07/18 08:11:30;;;;;;;8.13;3.92;;;28.30;99.90;;;;;;5168232;28;20109;-74
2023/07/18 08:14:01;;;;;;;8.20;4.22;;;28.50;99.90;;;;;;5166843;28;20169;-74
2023/07/18 08:16:32;;;;;;;10.10;4.32;;;28.50;99.90;;;;;;5168030;28;20042;-73
2023/07/18 08:19:03;;;;;;;5.90;4.25;;;28.50;99.90;;;;;;5167984;28;20068;-77
2023/07/18 08:21:34;;;;;;;14.40;4.97;;;28.70;99.90;;;;;;5166629;28;20038;-74
2023/07/18 08:24:05;;;;;;;12.52;4.75;;;28.60;99.90;;;;;;5167686;28;20058;-73
2023/07/18 08:26:36;;;;;;;7.13;4.32;;;28.80;99.90;;;;;;5167882;28;20022;-77
2023/07/18 08:29:07;;;;;;;9.15;4.18;;;28.60;99.90;;;;;;5167766;28;20026;-77
2023/07/18 08:31:37;;;;;;;4.60;3.92;;;28.70;99.90;;;;;;5167884;28;20359;-78
2023/07/18 08:34:08;;;;;;;11.05;3.92;;;28.60;99.90;;;;;;5167594;28;20030;-76
2023/07/18 08:36:39;;;;;;;12.93;4.90;;;28.80;99.90;;;;;;5167699;28;20050;-74
2023/07/18 08:39:10;;;;;;;5.57;4.00;;;28.90;99.90;;;;;;5166378;28;20034;-74
2023/07/18 08:41:46;;;;;;;8.63;3.30;;;29.00;99.90;;;;;;5167488;28;20493;-77
2023/07/18 08:44:17;;;;;;;3.50;3.20;;;28.70;99.90;;;;;;5167554;28;20041;-73
2023/07/18 08:46:49;;;;;;;6.25;3.10;;;28.90;99.90;;;;;;5167356;28;20037;-75
2023/07/18 08:49:22;;;;;;;5.10;3.30;;;29.00;99.90;;;;;;5166224;28;20024;-78
2023/07/18 08:51:53;;;;;;;4.90;3.33;;;29.20;99.90;;;;;;5167094;28;20023;-75
2023/07/18 08:54:23;;;;;;;5.95;3.83;;;29.20;99.90;;;;;;5167005;28;20109;-76
2023/07/18 08:56:56;;;;;;;8.15;4.32;;;29.20;99.90;;;;;;5167590;28;20074;-74
